Bluffton, Arkansas
Current Conditions -  °F | °C
As of 4:53 PM on Tuesday 27 Jan 2015 (Local Time) from KMWT Reporting Station
Clear Clear  
Wind Chill: 70°   Ceiling: Unl
Heat Index: 70°   Visibility: 10mi
Dew Point: 35°   Wind: 0mph
Humidity: 28%   Direction: NA
Pressure: 30.08"   Gusts: NA
Location:  34.91°N, 93.6°W
Report Text: KMWT 272253Z AUTO 00000KT 10SM CLR 21/02 A3008 RMK AO2 SLP188 T02110017
Loading
Personal Weather Stations






























Interactive Weather Map New forecast layout! Learn more

10-Day Weather Forecast

Advertisements
Track Severe Weather on mobile